createdAt,value
2022-09-27T00:02:47.762Z,99504.09
2022-09-27T00:07:55.733Z,99504.91
2022-09-27T00:13:01.702Z,99504.22
2022-09-27T00:18:07.721Z,99492.75
2022-09-27T00:23:15.227Z,99487.25
2022-09-27T00:28:21.249Z,99493.03
2022-09-27T00:33:27.533Z,99492.69
2022-09-27T00:38:35.174Z,99484.63
2022-09-27T00:43:49.560Z,99486.09
2022-09-27T00:49:10.191Z,99479.75
2022-09-27T00:54:21.468Z,99479.50
2022-09-27T00:59:31.957Z,99481.06
2022-09-27T01:04:40.289Z,99458.66
2022-09-27T01:09:48.515Z,99460.97
2022-09-27T01:15:15.345Z,99459.34
2022-09-27T01:20:56.858Z,99457.19
2022-09-27T01:26:18.538Z,99450.00
2022-09-27T01:31:33.409Z,99463.88
2022-09-27T01:36:50.976Z,99454.16
2022-09-27T01:42:05.788Z,99456.47
2022-09-27T01:47:23.998Z,99446.91
2022-09-27T01:52:48.035Z,99444.78
2022-09-27T01:58:08.315Z,99446.16
2022-09-27T02:03:20.350Z,99448.38
2022-09-27T02:08:52.764Z,99439.31
2022-09-27T02:14:22.827Z,99444.44
2022-09-27T02:19:49.358Z,99432.81
2022-09-27T02:25:06.400Z,99425.69
2022-09-27T02:30:16.362Z,99416.09
2022-09-27T02:35:32.851Z,99409.75
2022-09-27T02:40:46.328Z,99410.31
2022-09-27T02:46:13.038Z,99407.22
2022-09-27T02:51:44.088Z,99392.13
2022-09-27T02:57:04.006Z,99398.28
2022-09-27T03:02:33.901Z,99412.72
2022-09-27T03:08:01.472Z,99410.84
2022-09-27T03:13:08.220Z,99404.88
2022-09-27T03:18:14.972Z,99405.47
2022-09-27T03:23:22.907Z,99390.56
2022-09-27T03:28:29.987Z,99375.72
2022-09-27T03:33:36.748Z,99378.97
2022-09-27T03:38:49.176Z,99384.91
2022-09-27T03:43:58.208Z,99382.16
2022-09-27T03:49:04.422Z,99361.69
2022-09-27T03:54:12.076Z,99360.66
2022-09-27T03:59:18.079Z,99366.88
2022-09-27T04:04:59.849Z,99362.34
2022-09-27T04:10:09.046Z,99357.50
2022-09-27T04:15:17.044Z,99367.19
2022-09-27T04:20:43.209Z,99374.91
2022-09-27T04:25:53.743Z,99367.78
2022-09-27T04:31:17.452Z,99375.63
2022-09-27T04:36:31.092Z,99365.81
2022-09-27T04:41:59.999Z,99353.16
2022-09-27T04:52:17.396Z,99351.13
2022-09-27T04:57:24.902Z,99353.56
2022-09-27T05:02:31.654Z,99346.63
2022-09-27T05:07:56.595Z,99345.72
2022-09-27T05:13:14.268Z,99353.47
2022-09-27T05:18:20.403Z,99355.00
2022-09-27T05:24:10.076Z,99355.72
2022-09-27T05:29:18.023Z,99355.72
2022-09-27T05:34:35.310Z,99352.09
2022-09-27T05:39:41.650Z,99349.25
2022-09-27T05:44:49.595Z,99352.00
2022-09-27T05:49:56.098Z,99349.66
2022-09-27T05:55:01.999Z,99334.97
2022-09-27T06:00:13.163Z,99331.63
2022-09-27T06:05:20.054Z,99327.25
2022-09-27T06:11:05.142Z,99312.56
2022-09-27T06:16:14.131Z,99306.00
2022-09-27T06:21:23.454Z,99312.91
2022-09-27T06:26:34.926Z,99331.88
2022-09-27T06:31:59.699Z,99361.25
2022-09-27T06:37:28.278Z,99362.44
2022-09-27T06:42:34.497Z,99343.25
2022-09-27T06:47:50.499Z,99345.66
2022-09-27T06:53:05.161Z,99352.44
2022-09-27T06:58:31.299Z,99342.88
2022-09-27T07:03:59.066Z,99338.69
2022-09-27T07:09:27.689Z,99335.38
2022-09-27T07:14:35.390Z,99338.88
2022-09-27T07:19:44.434Z,99347.41
2022-09-27T07:24:51.868Z,99338.81
2022-09-27T07:29:59.313Z,99347.22
2022-09-27T07:35:09.807Z,99348.75
2022-09-27T07:40:15.871Z,99355.53
2022-09-27T07:45:46.929Z,99372.75
2022-09-27T07:51:20.689Z,99369.84
2022-09-27T07:56:30.372Z,99368.66
2022-09-27T08:01:37.781Z,99367.34
2022-09-27T08:06:45.403Z,99351.63
2022-09-27T08:11:51.927Z,99348.63
2022-09-27T08:16:59.134Z,99342.34
2022-09-27T08:22:10.049Z,99342.06
2022-09-27T08:27:37.651Z,99342.81
2022-09-27T08:32:58.128Z,99342.53
2022-09-27T08:38:07.116Z,99331.00
2022-09-27T08:43:24.552Z,99322.91
2022-09-27T08:48:31.885Z,99329.53
2022-09-27T08:53:44.360Z,99334.75
2022-09-27T08:58:57.724Z,99333.63
2022-09-27T09:04:12.856Z,99341.06
2022-09-27T09:09:32.405Z,99348.72
2022-09-27T09:15:17.856Z,99350.44
2022-09-27T09:20:45.997Z,99349.59
2022-09-27T09:26:03.222Z,99347.69
2022-09-27T09:31:21.928Z,99344.00
2022-09-27T09:36:33.970Z,99340.47
2022-09-27T09:42:00.405Z,99330.75
2022-09-27T09:47:18.531Z,99342.69
2022-09-27T09:52:34.263Z,99333.16
2022-09-27T09:57:50.371Z,99341.69
2022-09-27T10:03:02.613Z,99334.44
2022-09-27T10:08:20.158Z,99330.06
2022-09-27T10:13:37.578Z,99322.75
2022-09-27T10:18:49.899Z,99324.94
2022-09-27T10:24:17.730Z,99315.50
2022-09-27T10:29:47.139Z,99315.44
2022-09-27T10:35:23.564Z,99306.53
2022-09-27T10:40:34.081Z,99291.13
2022-09-27T10:45:46.083Z,99283.44
2022-09-27T10:51:03.707Z,99270.03
2022-09-27T10:56:28.875Z,99275.00
2022-09-27T11:01:48.619Z,99269.28
2022-09-27T11:07:24.454Z,99273.06
2022-09-27T11:12:42.302Z,99264.84
2022-09-27T11:18:03.285Z,99254.97
2022-09-27T11:23:28.502Z,99252.09
2022-09-27T11:28:49.935Z,99242.28
2022-09-27T11:34:47.844Z,99235.63
2022-09-27T11:40:08.113Z,99236.81
2022-09-27T11:45:50.473Z,99227.00
2022-09-27T11:51:24.896Z,99223.09
2022-09-27T11:56:43.698Z,99223.59
2022-09-27T12:01:57.645Z,99231.19
2022-09-27T12:07:13.002Z,99238.75
2022-09-27T12:12:25.589Z,99226.09
2022-09-27T12:17:37.767Z,99219.16
2022-09-27T12:23:00.047Z,99217.16
2022-09-27T12:28:35.050Z,99213.75
2022-09-27T12:33:49.132Z,99202.94
2022-09-27T12:39:06.000Z,99202.81
2022-09-27T12:44:14.480Z,99198.44
2022-09-27T12:49:42.911Z,99193.09
2022-09-27T12:55:32.894Z,99190.00
2022-09-27T13:00:47.553Z,99179.63
2022-09-27T13:06:32.554Z,99171.00
2022-09-27T13:11:54.225Z,99168.53
2022-09-27T13:17:00.434Z,99173.53
2022-09-27T13:22:09.343Z,99159.16
2022-09-27T13:27:45.174Z,99153.72
2022-09-27T13:33:38.939Z,99153.00
2022-09-27T13:39:06.256Z,99144.25
2022-09-27T13:44:33.604Z,99130.78
2022-09-27T13:49:42.240Z,99122.25
2022-09-27T13:54:59.247Z,99127.63
2022-09-27T14:00:18.626Z,99125.91
2022-09-27T14:05:42.256Z,99120.59
2022-09-27T14:10:48.249Z,99115.34
2022-09-27T14:15:58.132Z,99110.94
2022-09-27T14:21:29.470Z,99110.09
2022-09-27T14:26:49.339Z,99112.81
2022-09-27T14:32:09.615Z,99114.59
2022-09-27T14:37:27.653Z,99122.47
2022-09-27T14:42:44.897Z,99116.38
2022-09-27T14:47:54.264Z,99111.22
2022-09-27T14:53:02.782Z,99105.16
2022-09-27T14:58:35.986Z,99105.22
2022-09-27T15:03:46.769Z,99108.03
2022-09-27T15:08:55.359Z,99106.56
2022-09-27T15:14:03.572Z,99104.03
2022-09-27T15:19:19.176Z,99093.63
2022-09-27T15:24:45.242Z,99078.72
2022-09-27T15:29:53.665Z,99083.06
2022-09-27T15:35:09.643Z,99070.84
2022-09-27T15:41:07.069Z,99075.25
2022-09-27T15:46:36.685Z,99065.06
2022-09-27T15:51:45.924Z,99068.72
2022-09-27T15:56:55.513Z,99066.28
2022-09-27T16:02:08.116Z,99066.59
2022-09-27T16:07:16.546Z,99071.19
2022-09-27T16:12:25.538Z,99066.13
2022-09-27T16:17:31.907Z,99076.06
2022-09-27T16:22:39.833Z,99075.59
2022-09-27T16:27:46.232Z,99069.75
2022-09-27T16:32:52.713Z,99081.53
2022-09-27T16:38:00.516Z,99076.78
2022-09-27T16:43:07.704Z,99078.00
2022-09-27T16:48:14.347Z,99072.28
2022-09-27T16:53:22.175Z,99082.28
2022-09-27T16:58:31.312Z,99088.66
2022-09-27T17:03:37.518Z,99082.66
2022-09-27T17:08:45.149Z,99083.94
2022-09-27T17:13:56.350Z,99080.84
2022-09-27T17:19:03.915Z,99079.53
2022-09-27T17:24:12.380Z,99084.03
2022-09-27T17:29:19.163Z,99088.66
2022-09-27T17:34:26.063Z,99088.19
2022-09-27T17:39:34.024Z,99100.72
2022-09-27T17:44:40.696Z,99097.41
2022-09-27T17:50:04.577Z,99096.94
2022-09-27T17:55:12.565Z,99097.97
2022-09-27T18:00:21.863Z,99087.94
2022-09-27T18:05:29.648Z,99092.50
2022-09-27T18:10:38.159Z,99087.63
2022-09-27T18:15:44.273Z,99090.34
2022-09-27T18:20:53.498Z,99100.03
2022-09-27T18:26:03.418Z,99088.88
2022-09-27T18:36:37.789Z,99098.41
2022-09-27T18:41:45.682Z,99095.81
2022-09-27T18:46:54.227Z,99096.72
2022-09-27T18:52:03.197Z,99095.06
2022-09-27T18:57:11.058Z,99106.59
2022-09-27T19:02:17.716Z,99096.34
2022-09-27T19:08:11.651Z,99102.38
2022-09-27T19:13:17.380Z,99104.88
2022-09-27T19:18:24.051Z,99105.66
2022-09-27T19:23:31.587Z,99098.66
2022-09-27T19:28:41.754Z,99105.53
2022-09-27T19:33:48.595Z,99090.81
2022-09-27T19:38:59.161Z,99094.22
2022-09-27T19:44:07.042Z,99080.19
2022-09-27T19:49:13.122Z,99092.28
2022-09-27T19:54:20.806Z,99078.16
2022-09-27T19:59:30.160Z,99085.16
2022-09-27T20:04:36.306Z,99088.56
2022-09-27T20:09:43.146Z,99091.16
2022-09-27T20:14:50.899Z,99083.22
2022-09-27T20:19:57.228Z,99082.47
2022-09-27T20:25:03.417Z,99093.78
2022-09-27T20:30:15.630Z,99091.16
2022-09-27T20:35:22.574Z,99077.16
2022-09-27T20:40:28.600Z,99066.00
2022-09-27T20:45:36.083Z,99070.41
2022-09-27T20:50:43.212Z,99062.47
2022-09-27T20:55:49.525Z,99062.91
2022-09-27T21:00:57.250Z,99068.53
2022-09-27T21:06:04.868Z,99061.28
2022-09-27T21:11:20.199Z,99081.59
2022-09-27T21:16:40.430Z,99076.13
2022-09-27T21:21:55.710Z,99059.59
2022-09-27T21:27:10.572Z,99040.19
2022-09-27T21:32:20.880Z,99043.59
2022-09-27T21:37:27.001Z,99040.53
2022-09-27T21:42:33.024Z,99038.19
2022-09-27T21:47:40.415Z,99035.66
2022-09-27T21:52:46.337Z,99026.13
2022-09-27T21:57:52.449Z,99023.25
2022-09-27T22:03:00.910Z,99018.50
2022-09-27T22:08:06.943Z,99013.13
2022-09-27T22:13:13.649Z,99001.66
2022-09-27T22:18:21.789Z,99001.53
2022-09-27T22:23:27.815Z,99000.53
2022-09-27T22:28:33.754Z,99007.53
2022-09-27T22:33:41.197Z,99001.97
2022-09-27T22:38:47.515Z,98999.06
2022-09-27T22:43:54.882Z,98989.28
2022-09-27T22:49:02.403Z,98986.41
2022-09-27T22:54:08.446Z,98973.88
2022-09-27T22:59:14.974Z,98971.19
2022-09-27T23:04:22.435Z,98983.34
2022-09-27T23:09:28.528Z,98975.38
2022-09-27T23:14:34.400Z,98977.09
2022-09-27T23:19:41.814Z,98982.34
2022-09-27T23:24:47.684Z,98975.50
2022-09-27T23:29:53.521Z,98977.16
2022-09-27T23:35:00.887Z,98978.09
2022-09-27T23:40:10.479Z,98981.56
2022-09-27T23:45:16.643Z,98979.13
2022-09-27T23:50:24.135Z,98975.75
2022-09-27T23:55:29.876Z,98982.00
